createdAt,value
2019-04-05T00:01:13.691Z,6.95
2019-04-05T00:03:44.213Z,6.91
2019-04-05T00:06:14.775Z,6.91
2019-04-05T00:08:45.266Z,6.88
2019-04-05T00:11:15.821Z,6.93
2019-04-05T00:13:46.355Z,6.98
2019-04-05T00:16:16.852Z,7.01
2019-04-05T00:18:47.369Z,7.00
2019-04-05T00:21:17.893Z,6.99
2019-04-05T00:23:48.414Z,7.08
2019-04-05T00:26:18.928Z,7.13
2019-04-05T00:28:51.752Z,7.09
2019-04-05T00:31:21.707Z,7.06
2019-04-05T00:33:52.182Z,7.16
2019-04-05T00:36:22.761Z,7.14
2019-04-05T00:38:53.227Z,7.19
2019-04-05T00:41:23.786Z,7.20
2019-04-05T00:43:54.336Z,7.38
2019-04-05T00:46:24.865Z,7.29
2019-04-05T00:48:55.344Z,7.26
2019-04-05T00:51:25.888Z,7.31
2019-04-05T00:53:56.351Z,7.30
2019-04-05T00:56:26.816Z,7.38
2019-04-05T00:58:57.376Z,7.31
2019-04-05T01:01:27.885Z,7.33
2019-04-05T01:03:58.373Z,7.36
2019-04-05T01:06:28.964Z,7.25
2019-04-05T01:08:59.449Z,7.28
2019-04-05T01:11:29.937Z,7.26
2019-04-05T01:14:01.427Z,7.21
2019-04-05T01:16:32.094Z,7.35
2019-04-05T01:19:04.054Z,7.29
2019-04-05T01:21:40.588Z,7.24
2019-04-05T01:24:13.897Z,7.22
2019-04-05T01:26:47.234Z,7.19
2019-04-05T01:29:19.197Z,7.14
2019-04-05T01:31:49.768Z,7.20
2019-04-05T01:34:20.383Z,7.10
2019-04-05T01:36:50.938Z,7.13
2019-04-05T01:39:21.430Z,7.24
2019-04-05T01:41:52.268Z,7.17
2019-04-05T01:44:23.049Z,7.20
2019-04-05T01:46:53.527Z,7.09
2019-04-05T01:49:24.067Z,7.31
2019-04-05T01:51:54.964Z,7.29
2019-04-05T01:54:25.533Z,7.24
2019-04-05T01:56:56.095Z,7.22
2019-04-05T01:59:26.585Z,7.15
2019-04-05T02:01:57.110Z,7.11
2019-04-05T02:04:27.608Z,7.10
2019-04-05T02:06:58.514Z,7.10
2019-04-05T02:09:29.165Z,7.15
2019-04-05T02:11:59.790Z,7.17
2019-04-05T02:14:30.250Z,7.24
2019-04-05T02:17:00.785Z,7.23
2019-04-05T02:19:31.266Z,7.10
2019-04-05T02:22:01.724Z,7.14
2019-04-05T02:24:32.291Z,7.18
2019-04-05T02:27:02.853Z,7.22
2019-04-05T02:29:34.233Z,7.26
2019-04-05T02:32:04.804Z,7.39
2019-04-05T02:34:35.309Z,7.36
2019-04-05T02:37:05.866Z,7.28
2019-04-05T02:39:36.419Z,7.29
2019-04-05T02:42:07.397Z,7.33
2019-04-05T02:44:39.990Z,7.28
2019-04-05T02:47:12.476Z,7.30
2019-04-05T02:49:45.024Z,7.16
2019-04-05T02:52:19.383Z,7.15
2019-04-05T02:54:52.533Z,7.11
2019-04-05T02:57:24.240Z,7.10
2019-04-05T02:59:55.540Z,7.04
2019-04-05T03:02:27.186Z,7.10
2019-04-05T03:04:57.868Z,7.11
2019-04-05T03:07:29.332Z,7.13
2019-04-05T03:10:01.002Z,7.05
2019-04-05T03:12:33.596Z,7.04
2019-04-05T03:15:06.673Z,7.04
2019-04-05T03:17:38.770Z,7.08
2019-04-05T03:34:41.440Z,6.97
2019-04-05T03:37:12.236Z,6.96
2019-04-05T03:39:43.351Z,7.02
2019-04-05T03:42:14.000Z,6.91
2019-04-05T03:44:44.886Z,6.95
2019-04-05T03:47:16.072Z,6.85
2019-04-05T03:49:48.135Z,6.87
2019-04-05T03:52:18.919Z,6.87
2019-04-05T03:54:50.039Z,6.86
2019-04-05T03:57:21.005Z,6.88
2019-04-05T03:59:51.708Z,6.91
2019-04-05T04:02:23.659Z,6.89
2019-04-05T04:04:55.205Z,6.99
2019-04-05T04:07:25.795Z,6.95
2019-04-05T04:09:56.322Z,6.97
2019-04-05T04:12:29.554Z,6.89
2019-04-05T04:15:14.130Z,6.87
2019-04-05T04:17:46.383Z,6.93
2019-04-05T04:20:41.043Z,6.94
2019-04-05T04:23:12.780Z,6.92
2019-04-05T04:25:44.570Z,6.89
2019-04-05T04:28:15.027Z,6.99
2019-04-05T04:30:46.583Z,6.96
2019-04-05T04:33:18.466Z,7.03
2019-04-05T04:35:49.131Z,6.98
2019-04-05T04:38:19.682Z,7.06
2019-04-05T04:40:50.382Z,7.10
2019-04-05T04:43:21.904Z,7.23
2019-04-05T04:45:52.747Z,7.14
2019-04-05T04:48:23.727Z,7.20
2019-04-05T04:50:54.500Z,7.28
2019-04-05T04:53:25.175Z,7.26
2019-04-05T04:55:56.034Z,7.25
2019-04-05T04:58:26.508Z,7.18
2019-04-05T05:00:57.186Z,7.20
2019-04-05T05:03:28.075Z,7.24
2019-04-05T05:05:58.732Z,7.17
2019-04-05T05:08:29.358Z,7.25
2019-04-05T05:10:59.915Z,7.30
2019-04-05T05:13:30.524Z,7.25
2019-04-05T05:16:01.153Z,7.21
2019-04-05T05:18:31.806Z,7.26
2019-04-05T05:21:02.637Z,7.26
2019-04-05T05:23:33.875Z,7.27
2019-04-05T05:26:04.929Z,7.28
2019-04-05T05:28:35.408Z,7.32
2019-04-05T05:31:06.485Z,7.37
2019-04-05T05:33:37.105Z,7.41
2019-04-05T05:36:10.336Z,7.45
2019-04-05T05:38:40.310Z,7.37
2019-04-05T05:41:10.762Z,7.33
2019-04-05T05:43:41.223Z,7.35
2019-04-05T05:46:11.838Z,7.38
2019-04-05T05:48:43.316Z,7.48
2019-04-05T05:51:14.979Z,7.46
2019-04-05T05:53:45.923Z,7.51
2019-04-05T05:56:16.427Z,7.51
2019-04-05T05:58:46.954Z,7.63
2019-04-05T06:01:17.472Z,7.69
2019-04-05T06:03:47.946Z,7.73
2019-04-05T06:06:18.419Z,7.63
2019-04-05T06:08:48.977Z,7.62
2019-04-05T06:11:19.470Z,7.57
2019-04-05T06:13:49.969Z,7.58
2019-04-05T06:16:20.507Z,7.50
2019-04-05T06:18:50.989Z,7.56
2019-04-05T06:21:21.451Z,7.58
2019-04-05T06:23:52.022Z,7.73
2019-04-05T06:26:22.540Z,7.75
2019-04-05T06:28:53.067Z,7.88
2019-04-05T06:31:23.639Z,7.86
2019-04-05T06:33:54.195Z,7.78
2019-04-05T06:36:24.698Z,7.79
2019-04-05T06:38:55.251Z,7.84
2019-04-05T06:41:25.735Z,7.93
2019-04-05T06:43:56.213Z,7.90
2019-04-05T06:46:26.708Z,7.93
2019-04-05T06:48:57.198Z,7.99
2019-04-05T06:51:27.663Z,7.96
2019-04-05T06:53:58.204Z,7.81
2019-04-05T06:56:28.683Z,7.83
2019-04-05T06:58:59.177Z,7.77
2019-04-05T07:01:29.727Z,7.79
2019-04-05T07:04:00.254Z,7.87
2019-04-05T07:06:30.648Z,7.87
2019-04-05T07:09:01.199Z,7.91
2019-04-05T07:11:31.672Z,7.91
2019-04-05T07:14:02.192Z,7.92
2019-04-05T07:16:32.743Z,7.93
2019-04-05T07:19:03.285Z,7.87
2019-04-05T07:21:33.763Z,7.94
2019-04-05T07:24:04.329Z,8.08
2019-04-05T07:26:34.884Z,8.06
2019-04-05T07:29:05.469Z,8.02
2019-04-05T07:31:36.007Z,8.05
2019-04-05T07:34:06.522Z,8.14
2019-04-05T07:36:37.019Z,8.38
2019-04-05T07:39:08.677Z,8.54
2019-04-05T07:41:39.159Z,8.39
2019-04-05T07:44:09.642Z,8.34
2019-04-05T07:46:40.214Z,8.39
2019-04-05T07:49:10.693Z,8.65
2019-04-05T07:51:41.212Z,8.72
2019-04-05T07:54:11.731Z,8.74
2019-04-05T07:56:42.537Z,8.73
2019-04-05T07:59:13.010Z,8.68
2019-04-05T08:01:43.551Z,8.60
2019-04-05T08:04:14.035Z,8.62
2019-04-05T08:06:46.024Z,8.36
2019-04-05T08:09:19.060Z,8.45
2019-04-05T08:11:50.742Z,8.70
2019-04-05T08:14:21.836Z,8.67
2019-04-05T08:16:52.381Z,8.80
2019-04-05T08:19:22.896Z,8.71
2019-04-05T08:21:53.391Z,8.91
2019-04-05T08:24:24.001Z,8.97
2019-04-05T08:26:54.595Z,9.08
2019-04-05T08:29:25.105Z,9.32
2019-04-05T08:31:55.643Z,9.42
2019-04-05T08:34:26.174Z,9.56
2019-04-05T08:36:56.738Z,9.58
2019-04-05T08:39:27.342Z,9.71
2019-04-05T08:41:57.862Z,9.75
2019-04-05T08:44:28.345Z,9.83
2019-04-05T08:46:58.965Z,9.90
2019-04-05T08:49:29.505Z,9.87
2019-04-05T08:51:59.999Z,9.79
2019-04-05T08:54:33.202Z,9.81
2019-04-05T08:57:02.850Z,9.64
2019-04-05T08:59:33.615Z,9.72
2019-04-05T09:02:04.123Z,9.82
2019-04-05T09:04:34.508Z,9.84
2019-04-05T09:07:04.969Z,9.83
2019-04-05T09:09:35.533Z,9.71
2019-04-05T09:12:06.016Z,9.75
2019-04-05T09:14:36.497Z,9.76
2019-04-05T09:17:07.126Z,9.84
2019-04-05T09:19:37.646Z,9.72
2019-04-05T09:22:08.206Z,9.81
2019-04-05T09:24:38.783Z,10.00
2019-04-05T09:27:09.333Z,10.04
2019-04-05T09:29:39.889Z,10.04
2019-04-05T09:32:10.530Z,10.03
2019-04-05T09:34:41.058Z,10.00
2019-04-05T09:37:11.567Z,10.09
2019-04-05T09:39:42.241Z,10.05
2019-04-05T09:42:12.797Z,10.20
2019-04-05T09:44:43.446Z,10.14
2019-04-05T09:47:14.174Z,10.11
2019-04-05T09:49:44.685Z,10.01
2019-04-05T09:52:15.261Z,10.21
2019-04-05T09:54:48.098Z,10.41
2019-04-05T09:57:18.657Z,10.76
2019-04-05T09:59:49.199Z,11.16
2019-04-05T10:02:19.850Z,11.14
2019-04-05T10:04:50.703Z,11.26
2019-04-05T10:07:21.308Z,11.20
2019-04-05T10:09:51.843Z,11.52
2019-04-05T10:12:22.370Z,11.47
2019-04-05T10:14:52.858Z,11.79
2019-04-05T10:17:23.463Z,11.69
2019-04-05T10:19:54.137Z,11.71
2019-04-05T10:22:24.681Z,11.58
2019-04-05T10:24:55.264Z,11.64
2019-04-05T10:27:25.804Z,11.69
2019-04-05T10:29:56.355Z,11.67
2019-04-05T10:32:26.999Z,12.09
2019-04-05T10:34:57.525Z,12.14
2019-04-05T10:37:28.069Z,12.26
2019-04-05T10:39:58.666Z,12.16
2019-04-05T10:42:34.322Z,11.75
2019-04-05T10:45:06.703Z,12.03
2019-04-05T10:47:37.383Z,12.13
2019-04-05T10:50:11.933Z,12.07
2019-04-05T10:52:42.515Z,11.92
2019-04-05T10:55:13.267Z,12.16
2019-04-05T10:57:43.942Z,12.22
2019-04-05T11:00:17.285Z,12.54
2019-04-05T11:02:48.069Z,12.82
2019-04-05T11:05:18.752Z,12.87
2019-04-05T11:07:49.389Z,13.21
2019-04-05T11:10:20.494Z,13.35
2019-04-05T11:12:51.252Z,13.70
2019-04-05T11:15:21.889Z,13.75
2019-04-05T11:17:52.507Z,13.95
2019-04-05T11:20:23.226Z,13.92
2019-04-05T11:22:53.780Z,13.85
2019-04-05T11:25:24.389Z,14.08
2019-04-05T11:27:55.009Z,14.25
2019-04-05T11:30:50.978Z,14.36
2019-04-05T11:36:15.246Z,14.41
2019-04-05T11:38:50.029Z,14.36
2019-04-05T11:41:20.251Z,14.27
2019-04-05T11:43:53.171Z,14.75
2019-04-05T11:46:23.789Z,14.54
2019-04-05T11:48:56.370Z,14.78
2019-04-05T11:51:26.902Z,14.58
2019-04-05T11:53:57.327Z,15.07
2019-04-05T11:56:27.949Z,14.99
2019-04-05T11:58:58.676Z,14.81
2019-04-05T12:01:35.049Z,14.62
2019-04-05T12:04:05.586Z,14.67
2019-04-05T12:06:36.153Z,14.45
2019-04-05T12:09:09.057Z,14.25
2019-04-05T12:11:39.666Z,14.01
2019-04-05T12:14:10.114Z,14.13
2019-04-05T12:16:40.769Z,13.72
2019-04-05T12:19:11.383Z,14.10
2019-04-05T12:21:41.932Z,14.11
2019-04-05T12:24:12.547Z,13.94
2019-04-05T12:26:43.096Z,14.24
2019-04-05T12:29:13.639Z,14.80
2019-04-05T12:31:44.295Z,14.79
2019-04-05T12:34:14.822Z,14.84
2019-04-05T12:36:45.349Z,15.20
2019-04-05T12:39:16.066Z,15.18
2019-04-05T12:41:46.575Z,15.11
2019-04-05T12:44:17.078Z,14.88
2019-04-05T12:46:47.645Z,14.82
2019-04-05T12:49:18.362Z,14.95
2019-04-05T12:51:48.924Z,14.97
2019-04-05T12:54:21.192Z,15.04
2019-04-05T12:56:54.161Z,15.25
2019-04-05T12:59:25.447Z,15.95
2019-04-05T13:01:59.436Z,16.25
2019-04-05T13:04:28.806Z,16.50
2019-04-05T13:06:59.419Z,15.91
2019-04-05T13:09:30.964Z,16.07
2019-04-05T13:12:01.625Z,16.01
2019-04-05T13:14:32.278Z,15.94
2019-04-05T13:17:03.319Z,16.61
2019-04-05T13:19:33.945Z,17.47
2019-04-05T13:22:04.877Z,17.97
2019-04-05T13:24:40.255Z,19.12
2019-04-05T13:27:11.732Z,19.22
2019-04-05T13:29:42.615Z,19.29
2019-04-05T13:32:13.157Z,19.87
2019-04-05T13:34:43.875Z,20.34
2019-04-05T13:37:21.629Z,20.64
2019-04-05T13:39:52.793Z,19.42
2019-04-05T13:42:23.463Z,19.10
2019-04-05T13:44:54.135Z,18.33
2019-04-05T13:47:33.146Z,18.79
2019-04-05T13:50:03.932Z,18.76
2019-04-05T13:52:34.587Z,18.39
2019-04-05T13:55:05.397Z,18.15
2019-04-05T13:57:45.779Z,17.34
2019-04-05T14:00:18.609Z,16.97
2019-04-05T14:02:50.768Z,16.95
2019-04-05T14:05:22.693Z,16.59
2019-04-05T14:08:09.062Z,16.28
2019-04-05T14:10:25.910Z,16.11
2019-04-05T14:12:56.787Z,15.96
2019-04-05T14:15:27.411Z,15.94
2019-04-05T14:17:57.895Z,16.00
2019-04-05T14:20:28.519Z,16.15
2019-04-05T14:22:58.998Z,16.22
2019-04-05T14:25:30.240Z,16.04
2019-04-05T14:28:02.490Z,15.89
2019-04-05T14:30:33.735Z,15.56
2019-04-05T14:33:04.833Z,15.47
2019-04-05T14:35:35.358Z,15.86
2019-04-05T14:38:06.059Z,15.92
2019-04-05T14:40:36.694Z,15.94
2019-04-05T14:43:07.291Z,16.14
2019-04-05T14:45:37.839Z,15.75
2019-04-05T14:48:08.452Z,16.13
2019-04-05T14:50:39.015Z,16.03
2019-04-05T14:53:09.650Z,16.44
2019-04-05T14:55:40.275Z,17.28
2019-04-05T14:58:10.993Z,17.55
2019-04-05T15:00:41.489Z,18.46
2019-04-05T15:03:12.040Z,18.48
2019-04-05T15:05:42.802Z,18.42
2019-04-05T15:08:13.300Z,19.02
2019-04-05T15:10:43.872Z,19.39
2019-04-05T15:13:14.529Z,19.25
2019-04-05T15:15:45.287Z,19.27
2019-04-05T15:18:15.937Z,19.23
2019-04-05T15:20:46.400Z,19.66
2019-04-05T15:23:16.881Z,20.22
2019-04-05T15:25:49.615Z,19.71
2019-04-05T15:28:20.558Z,19.38
2019-04-05T15:30:55.674Z,20.32
2019-04-05T15:33:27.446Z,21.08
2019-04-05T15:36:00.166Z,20.51
2019-04-05T15:38:31.675Z,21.01
2019-04-05T15:41:02.010Z,20.81
2019-04-05T15:43:32.532Z,20.47
2019-04-05T15:46:03.135Z,20.75
2019-04-05T15:48:33.712Z,20.29
2019-04-05T15:51:04.329Z,19.59
2019-04-05T15:53:34.908Z,19.27
2019-04-05T15:56:05.434Z,19.30
2019-04-05T15:58:35.968Z,18.77
2019-04-05T16:01:06.933Z,18.37
2019-04-05T16:03:37.490Z,18.37
2019-04-05T16:06:08.128Z,18.48
2019-04-05T16:08:38.755Z,18.45
2019-04-05T16:11:09.284Z,17.92
2019-04-05T16:13:39.785Z,17.07
2019-04-05T16:16:10.360Z,16.35
2019-04-05T16:18:40.848Z,16.17
2019-04-05T16:21:11.372Z,15.56
2019-04-05T16:23:41.944Z,15.45
2019-04-05T16:26:15.431Z,15.23
2019-04-05T16:28:45.985Z,15.26
2019-04-05T16:31:16.520Z,14.93
2019-04-05T16:33:47.019Z,14.73
2019-04-05T16:36:17.603Z,14.35
2019-04-05T16:38:48.089Z,13.91
2019-04-05T16:41:18.613Z,13.81
2019-04-05T16:43:49.215Z,13.76
2019-04-05T16:46:19.755Z,13.64
2019-04-05T16:48:50.234Z,13.50
2019-04-05T16:51:20.841Z,13.39
2019-04-05T16:54:01.632Z,13.23
2019-04-05T16:56:32.439Z,13.02
2019-04-05T16:59:02.970Z,12.88
2019-04-05T17:01:33.474Z,12.78
2019-04-05T17:04:04.110Z,12.60
2019-04-05T17:06:34.679Z,12.49
2019-04-05T17:09:08.567Z,12.27
2019-04-05T17:11:39.163Z,12.20
2019-04-05T17:14:09.687Z,12.20
2019-04-05T17:16:40.274Z,12.14
2019-04-05T17:19:10.814Z,11.98
2019-04-05T17:21:41.361Z,11.92
2019-04-05T17:24:12.025Z,11.73
2019-04-05T17:26:42.565Z,11.60
2019-04-05T17:29:13.059Z,11.46
2019-04-05T17:31:43.580Z,11.52
2019-04-05T17:34:14.075Z,11.38
2019-04-05T17:36:44.582Z,11.39
2019-04-05T17:39:15.139Z,11.43
2019-04-05T17:41:45.652Z,11.42
2019-04-05T17:44:16.143Z,11.28
2019-04-05T17:46:46.668Z,11.30
2019-04-05T17:49:17.204Z,11.27
2019-04-05T17:51:47.712Z,11.22
2019-04-05T17:54:18.271Z,11.35
2019-04-05T17:56:48.791Z,11.34
2019-04-05T17:59:19.363Z,11.41
2019-04-05T18:01:49.901Z,11.40
2019-04-05T18:04:20.348Z,11.32
2019-04-05T18:06:50.932Z,11.32
2019-04-05T18:09:21.448Z,11.25
2019-04-05T18:11:51.945Z,11.27
2019-04-05T18:14:22.450Z,11.26
2019-04-05T18:16:53.054Z,11.25
2019-04-05T18:19:23.500Z,11.25
2019-04-05T18:21:53.998Z,11.18
2019-04-05T18:24:24.567Z,11.13
2019-04-05T18:26:55.083Z,11.20
2019-04-05T18:29:25.581Z,11.18
2019-04-05T18:31:56.159Z,11.15
2019-04-05T18:34:26.690Z,11.11
2019-04-05T18:36:57.210Z,11.11
2019-04-05T18:39:27.779Z,11.02
2019-04-05T18:41:58.304Z,11.00
2019-04-05T18:44:28.838Z,11.10
2019-04-05T18:46:59.381Z,10.99
2019-04-05T18:49:29.865Z,10.99
2019-04-05T18:52:00.373Z,11.10
2019-04-05T18:54:30.885Z,11.13
2019-04-05T18:57:01.391Z,11.10
2019-04-05T18:59:31.889Z,11.09
2019-04-05T19:02:02.423Z,11.03
2019-04-05T19:04:32.932Z,10.89
2019-04-05T19:07:03.421Z,10.86
2019-04-05T19:09:33.958Z,10.82
2019-04-05T19:12:04.472Z,10.89
2019-04-05T19:14:34.957Z,10.91
2019-04-05T19:17:05.453Z,10.81
2019-04-05T19:19:35.956Z,10.76
2019-04-05T19:22:06.449Z,10.80
2019-04-05T19:24:36.984Z,10.84
2019-04-05T19:27:07.548Z,10.81
2019-04-05T19:29:38.026Z,10.77
2019-04-05T19:49:54.355Z,10.64
2019-04-05T19:52:24.884Z,10.62
2019-04-05T19:54:55.458Z,10.66
2019-04-05T19:57:25.956Z,10.62
2019-04-05T19:59:56.464Z,10.56
2019-04-05T20:02:27.024Z,10.66
2019-04-05T20:04:57.692Z,10.56
2019-04-05T20:07:28.207Z,10.52
2019-04-05T20:09:58.756Z,10.60
2019-04-05T20:12:29.231Z,10.55
2019-04-05T20:15:02.123Z,10.51
2019-04-05T20:17:32.665Z,10.49
2019-04-05T20:20:03.215Z,10.55
2019-04-05T20:22:33.701Z,10.56
2019-04-05T20:25:04.717Z,10.57
2019-04-05T20:27:35.107Z,10.51
2019-04-05T20:30:07.350Z,10.52
2019-04-05T20:32:37.829Z,10.47
2019-04-05T20:35:08.594Z,10.36
2019-04-05T20:37:40.109Z,10.56
2019-04-05T20:40:10.884Z,10.44
2019-04-05T20:42:41.411Z,10.34
2019-04-05T20:45:12.033Z,10.32
2019-04-05T20:47:42.599Z,10.32
2019-04-05T20:50:13.307Z,10.33
2019-04-05T20:52:43.816Z,10.25
2019-04-05T20:55:14.314Z,10.34
2019-04-05T20:57:44.773Z,10.25
2019-04-05T21:00:15.981Z,10.34
2019-04-05T21:02:46.559Z,10.31
2019-04-05T21:05:25.012Z,10.22
2019-04-05T21:07:49.312Z,10.21
2019-04-05T21:10:19.908Z,10.20
2019-04-05T21:12:50.392Z,10.25
2019-04-05T21:15:20.904Z,10.27
2019-04-05T21:17:51.437Z,10.16
2019-04-05T21:20:21.928Z,10.04
2019-04-05T21:22:52.494Z,10.02
2019-04-05T21:25:23.126Z,9.94
2019-04-05T21:27:53.667Z,9.95
2019-04-05T21:30:24.252Z,10.03
2019-04-05T21:32:54.928Z,10.01
2019-04-05T21:35:25.466Z,10.03
2019-04-05T21:37:56.011Z,9.83
2019-04-05T21:40:26.594Z,9.75
2019-04-05T21:42:57.092Z,9.66
2019-04-05T21:45:27.639Z,9.42
2019-04-05T21:47:58.169Z,9.35
2019-04-05T21:50:28.681Z,9.17
2019-04-05T21:52:59.214Z,8.99
2019-04-05T21:55:29.867Z,8.81
2019-04-05T21:58:00.451Z,8.63
2019-04-05T22:00:44.109Z,8.47
2019-04-05T22:03:14.626Z,8.40
2019-04-05T22:05:45.142Z,8.32
2019-04-05T22:08:15.640Z,8.22
2019-04-05T22:10:46.098Z,8.15
2019-04-05T22:13:16.538Z,8.11
2019-04-05T22:15:47.053Z,8.03
2019-04-05T22:18:17.507Z,7.95
2019-04-05T22:20:47.978Z,7.80
2019-04-05T22:23:18.594Z,7.73
2019-04-05T22:25:49.100Z,7.65
2019-04-05T22:28:19.754Z,7.56
2019-04-05T22:30:50.242Z,7.57
2019-04-05T22:33:20.721Z,7.58
2019-04-05T22:35:51.252Z,7.58
2019-04-05T22:38:21.755Z,7.61
2019-04-05T22:40:52.246Z,7.60
2019-04-05T22:43:22.779Z,7.65
2019-04-05T22:45:53.256Z,7.66
2019-04-05T22:48:23.809Z,7.65
2019-04-05T22:50:54.301Z,7.66
2019-04-05T22:53:24.737Z,7.63
2019-04-05T22:55:55.290Z,7.58
2019-04-05T22:58:25.776Z,7.67
2019-04-05T23:00:56.280Z,7.68
2019-04-05T23:03:26.881Z,7.65
2019-04-05T23:05:57.392Z,7.56
2019-04-05T23:08:27.943Z,7.57
2019-04-05T23:10:58.442Z,7.51
2019-04-05T23:13:28.951Z,7.53
2019-04-05T23:15:59.509Z,7.46
2019-04-05T23:18:30.066Z,7.44
2019-04-05T23:21:00.613Z,7.40
2019-04-05T23:23:31.184Z,7.36
2019-04-05T23:26:01.715Z,7.32
2019-04-05T23:28:32.217Z,7.38
2019-04-05T23:31:02.788Z,7.42
2019-04-05T23:33:33.311Z,7.45
2019-04-05T23:36:03.937Z,7.47
2019-04-05T23:38:34.481Z,7.49
2019-04-05T23:41:05.038Z,7.49
2019-04-05T23:43:35.531Z,7.52
2019-04-05T23:46:06.076Z,7.48
2019-04-05T23:48:36.557Z,7.45
2019-04-05T23:51:07.071Z,7.42
2019-04-05T23:53:37.627Z,7.34
2019-04-05T23:56:08.130Z,7.32
2019-04-05T23:58:38.600Z,7.24
